sensor_id;sensor_type;location;lat;lon;timestamp;pressure;altitude;pressure_sealevel;temperature;humidity
62150;BME280;48134;53.586;10.610;2024-02-26T00:00:49;99772.59;;;1.38;100.00
62150;BME280;48134;53.586;10.610;2024-02-26T00:03:22;99775.78;;;1.34;100.00
62150;BME280;48134;53.586;10.610;2024-02-26T00:05:55;99775.13;;;1.27;100.00
62150;BME280;48134;53.586;10.610;2024-02-26T00:08:23;99773.72;;;1.25;100.00
62150;BME280;48134;53.586;10.610;2024-02-26T00:10:56;99776.06;;;1.21;100.00
62150;BME280;48134;53.586;10.610;2024-02-26T00:13:30;99771.44;;;1.16;100.00
62150;BME280;48134;53.586;10.610;2024-02-26T00:16:00;99778.06;;;1.14;100.00
62150;BME280;48134;53.586;10.610;2024-02-26T00:18:33;99786.25;;;1.07;100.00
62150;BME280;48134;53.586;10.610;2024-02-26T00:21:06;99782.53;;;1.08;100.00
62150;BME280;48134;53.586;10.610;2024-02-26T00:23:35;99776.56;;;1.06;100.00
62150;BME280;48134;53.586;10.610;2024-02-26T00:26:08;99777.88;;;1.04;100.00
62150;BME280;48134;53.586;10.610;2024-02-26T00:28:43;99773.91;;;1.06;100.00
62150;BME280;48134;53.586;10.610;2024-02-26T00:31:12;99778.94;;;1.02;100.00
62150;BME280;48134;53.586;10.610;2024-02-26T00:33:45;99782.66;;;1.01;100.00
62150;BME280;48134;53.586;10.610;2024-02-26T00:36:18;99783.47;;;1.02;100.00
62150;BME280;48134;53.586;10.610;2024-02-26T00:38:52;99783.63;;;0.95;100.00
62150;BME280;48134;53.586;10.610;2024-02-26T00:41:25;99774.53;;;0.96;100.00
62150;BME280;48134;53.586;10.610;2024-02-26T00:43:58;99782.47;;;0.91;100.00
62150;BME280;48134;53.586;10.610;2024-02-26T00:46:33;99783.53;;;0.90;100.00
62150;BME280;48134;53.586;10.610;2024-02-26T00:49:06;99782.38;;;0.86;100.00
62150;BME280;48134;53.586;10.610;2024-02-26T00:51:34;99783.19;;;0.87;100.00
62150;BME280;48134;53.586;10.610;2024-02-26T00:54:08;99774.91;;;0.88;100.00
62150;BME280;48134;53.586;10.610;2024-02-26T00:56:41;99780.88;;;0.78;100.00
62150;BME280;48134;53.586;10.610;2024-02-26T00:59:09;99787.19;;;0.72;100.00
62150;BME280;48134;53.586;10.610;2024-02-26T01:01:44;99781.00;;;0.72;100.00
62150;BME280;48134;53.586;10.610;2024-02-26T01:04:17;99789.63;;;0.74;100.00
62150;BME280;48134;53.586;10.610;2024-02-26T01:06:50;99789.03;;;0.72;100.00
62150;BME280;48134;53.586;10.610;2024-02-26T01:09:22;99790.09;;;0.71;100.00
62150;BME280;48134;53.586;10.610;2024-02-26T01:11:55;99793.47;;;0.66;100.00
62150;BME280;48134;53.586;10.610;2024-02-26T01:14:28;99794.31;;;0.66;100.00
62150;BME280;48134;53.586;10.610;2024-02-26T01:17:06;99796.06;;;0.61;100.00
62150;BME280;48134;53.586;10.610;2024-02-26T01:19:36;99788.47;;;0.58;100.00
62150;BME280;48134;53.586;10.610;2024-02-26T01:22:10;99789.44;;;0.52;100.00
62150;BME280;48134;53.586;10.610;2024-02-26T01:24:43;99783.84;;;0.53;100.00
62150;BME280;48134;53.586;10.610;2024-02-26T01:27:11;99785.25;;;0.56;100.00
62150;BME280;48134;53.586;10.610;2024-02-26T01:29:46;99780.13;;;0.54;100.00
62150;BME280;48134;53.586;10.610;2024-02-26T01:32:20;99778.13;;;0.49;100.00
62150;BME280;48134;53.586;10.610;2024-02-26T01:34:48;99793.28;;;0.44;100.00
62150;BME280;48134;53.586;10.610;2024-02-26T01:37:22;99793.28;;;0.44;100.00
62150;BME280;48134;53.586;10.610;2024-02-26T01:39:50;99787.56;;;0.52;100.00
62150;BME280;48134;53.586;10.610;2024-02-26T01:42:18;99786.53;;;0.53;100.00
62150;BME280;48134;53.586;10.610;2024-02-26T01:44:51;99796.63;;;0.51;100.00
62150;BME280;48134;53.586;10.610;2024-02-26T01:47:26;99792.22;;;0.45;100.00
62150;BME280;48134;53.586;10.610;2024-02-26T01:50:00;99794.00;;;0.39;100.00
62150;BME280;48134;53.586;10.610;2024-02-26T01:52:34;99792.59;;;0.37;100.00
62150;BME280;48134;53.586;10.610;2024-02-26T01:55:07;99792.59;;;0.37;100.00
62150;BME280;48134;53.586;10.610;2024-02-26T01:57:42;99789.19;;;0.41;100.00
62150;BME280;48134;53.586;10.610;2024-02-26T02:00:17;99790.59;;;0.44;100.00
62150;BME280;48134;53.586;10.610;2024-02-26T02:02:52;99785.13;;;0.39;100.00
62150;BME280;48134;53.586;10.610;2024-02-26T02:05:27;99797.81;;;0.43;100.00
62150;BME280;48134;53.586;10.610;2024-02-26T02:08:01;99800.97;;;0.40;100.00
62150;BME280;48134;53.586;10.610;2024-02-26T02:10:31;99805.97;;;0.37;100.00
62150;BME280;48134;53.586;10.610;2024-02-26T02:13:04;99800.03;;;0.34;100.00
62150;BME280;48134;53.586;10.610;2024-02-26T02:15:37;99799.81;;;0.24;100.00
62150;BME280;48134;53.586;10.610;2024-02-26T02:18:12;99790.38;;;0.33;100.00
62150;BME280;48134;53.586;10.610;2024-02-26T02:20:46;99797.69;;;0.50;100.00
62150;BME280;48134;53.586;10.610;2024-02-26T02:23:20;99791.53;;;0.38;100.00
62150;BME280;48134;53.586;10.610;2024-02-26T02:25:48;99803.31;;;0.13;100.00
62150;BME280;48134;53.586;10.610;2024-02-26T02:28:17;99792.59;;;0.13;100.00
62150;BME280;48134;53.586;10.610;2024-02-26T02:30:50;99793.16;;;0.15;100.00
62150;BME280;48134;53.586;10.610;2024-02-26T02:33:25;99805.16;;;0.12;100.00
62150;BME280;48134;53.586;10.610;2024-02-26T02:36:00;99790.97;;;0.12;100.00
62150;BME280;48134;53.586;10.610;2024-02-26T02:38:28;99798.88;;;0.07;100.00
62150;BME280;48134;53.586;10.610;2024-02-26T02:41:02;99802.72;;;0.11;100.00
62150;BME280;48134;53.586;10.610;2024-02-26T02:43:35;99794.00;;;0.15;100.00
62150;BME280;48134;53.586;10.610;2024-02-26T02:46:08;99799.69;;;0.19;100.00
62150;BME280;48134;53.586;10.610;2024-02-26T02:48:43;99801.78;;;0.05;100.00
62150;BME280;48134;53.586;10.610;2024-02-26T02:51:18;99798.03;;;-0.06;100.00
62150;BME280;48134;53.586;10.610;2024-02-26T02:53:51;99797.84;;;-0.04;100.00
62150;BME280;48134;53.586;10.610;2024-02-26T02:56:19;99804.34;;;0.00;100.00
62150;BME280;48134;53.586;10.610;2024-02-26T02:58:52;99802.13;;;0.21;100.00
62150;BME280;48134;53.586;10.610;2024-02-26T03:01:25;99805.16;;;0.12;100.00
62150;BME280;48134;53.586;10.610;2024-02-26T03:03:58;99808.16;;;-0.08;100.00
62150;BME280;48134;53.586;10.610;2024-02-26T03:06:28;99807.72;;;0.07;100.00
62150;BME280;48134;53.586;10.610;2024-02-26T03:09:01;99807.22;;;-0.02;100.00
62150;BME280;48134;53.586;10.610;2024-02-26T03:11:30;99811.41;;;-0.06;100.00
62150;BME280;48134;53.586;10.610;2024-02-26T03:13:58;99818.16;;;-0.03;100.00
62150;BME280;48134;53.586;10.610;2024-02-26T03:16:31;99822.81;;;-0.10;100.00
62150;BME280;48134;53.586;10.610;2024-02-26T03:18:59;99823.84;;;-0.23;100.00
62150;BME280;48134;53.586;10.610;2024-02-26T03:21:34;99818.22;;;-0.33;100.00
62150;BME280;48134;53.586;10.610;2024-02-26T03:24:03;99810.53;;;-0.42;100.00
62150;BME280;48134;53.586;10.610;2024-02-26T03:26:36;99812.19;;;-0.41;100.00
62150;BME280;48134;53.586;10.610;2024-02-26T03:29:04;99822.53;;;-0.32;100.00
62150;BME280;48134;53.586;10.610;2024-02-26T03:31:37;99823.66;;;-0.40;100.00
62150;BME280;48134;53.586;10.610;2024-02-26T03:34:05;99823.91;;;-0.42;100.00
62150;BME280;48134;53.586;10.610;2024-02-26T03:36:40;99832.28;;;-0.38;100.00
62150;BME280;48134;53.586;10.610;2024-02-26T03:39:14;99826.72;;;-0.37;100.00
62150;BME280;48134;53.586;10.610;2024-02-26T03:41:42;99833.69;;;-0.36;100.00
62150;BME280;48134;53.586;10.610;2024-02-26T03:44:10;99840.00;;;-0.30;100.00
62150;BME280;48134;53.586;10.610;2024-02-26T03:46:43;99841.81;;;-0.30;100.00
62150;BME280;48134;53.586;10.610;2024-02-26T03:49:11;99838.13;;;-0.29;100.00
62150;BME280;48134;53.586;10.610;2024-02-26T03:51:46;99835.59;;;-0.24;100.00
62150;BME280;48134;53.586;10.610;2024-02-26T03:54:19;99836.16;;;-0.22;100.00
62150;BME280;48134;53.586;10.610;2024-02-26T03:56:48;99838.94;;;-0.29;100.00
62150;BME280;48134;53.586;10.610;2024-02-26T03:59:16;99848.09;;;-0.37;100.00
62150;BME280;48134;53.586;10.610;2024-02-26T04:01:49;99846.94;;;-0.41;100.00
62150;BME280;48134;53.586;10.610;2024-02-26T04:04:23;99858.09;;;-0.32;100.00
62150;BME280;48134;53.586;10.610;2024-02-26T04:06:52;99864.94;;;-0.36;100.00
62150;BME280;48134;53.586;10.610;2024-02-26T04:09:26;99868.97;;;-0.15;100.00
62150;BME280;48134;53.586;10.610;2024-02-26T04:11:59;99864.91;;;-0.18;100.00
62150;BME280;48134;53.586;10.610;2024-02-26T04:14:27;99865.97;;;-0.07;100.00
62150;BME280;48134;53.586;10.610;2024-02-26T04:17:01;99875.31;;;-0.28;100.00
62150;BME280;48134;53.586;10.610;2024-02-26T04:19:29;99882.53;;;-0.28;100.00
62150;BME280;48134;53.586;10.610;2024-02-26T04:22:04;99892.19;;;-0.27;100.00
62150;BME280;48134;53.586;10.610;2024-02-26T04:24:37;99891.03;;;-0.31;100.00
62150;BME280;48134;53.586;10.610;2024-02-26T04:27:05;99899.34;;;-0.40;100.00
62150;BME280;48134;53.586;10.610;2024-02-26T04:29:33;99901.31;;;-0.47;100.00
62150;BME280;48134;53.586;10.610;2024-02-26T04:32:02;99902.81;;;-0.51;100.00
62150;BME280;48134;53.586;10.610;2024-02-26T04:34:35;99909.75;;;-0.50;100.00
62150;BME280;48134;53.586;10.610;2024-02-26T04:37:05;99914.97;;;-0.55;100.00
62150;BME280;48134;53.586;10.610;2024-02-26T04:39:38;99916.91;;;-0.62;100.00
62150;BME280;48134;53.586;10.610;2024-02-26T04:42:12;99932.22;;;-0.70;100.00
62150;BME280;48134;53.586;10.610;2024-02-26T04:44:46;99932.88;;;-0.74;100.00
62150;BME280;48134;53.586;10.610;2024-02-26T04:47:19;99930.78;;;-0.72;100.00
62150;BME280;48134;53.586;10.610;2024-02-26T04:49:49;99929.75;;;-0.71;100.00
62150;BME280;48134;53.586;10.610;2024-02-26T04:52:23;99939.41;;;-0.70;100.00
62150;BME280;48134;53.586;10.610;2024-02-26T04:54:56;99944.31;;;-0.67;100.00
62150;BME280;48134;53.586;10.610;2024-02-26T04:57:31;99953.34;;;-0.68;100.00
62150;BME280;48134;53.586;10.610;2024-02-26T05:00:05;99936.66;;;-0.63;100.00
62150;BME280;48134;53.586;10.610;2024-02-26T05:02:40;99948.16;;;-0.63;100.00
62150;BME280;48134;53.586;10.610;2024-02-26T05:05:13;99944.75;;;-0.70;100.00
62150;BME280;48134;53.586;10.610;2024-02-26T05:07:42;99943.34;;;-0.73;100.00
62150;BME280;48134;53.586;10.610;2024-02-26T05:10:16;99942.75;;;-0.75;100.00
62150;BME280;48134;53.586;10.610;2024-02-26T05:12:44;99951.81;;;-0.76;100.00
62150;BME280;48134;53.586;10.610;2024-02-26T05:15:17;99952.16;;;-0.72;100.00
62150;BME280;48134;53.586;10.610;2024-02-26T05:17:51;99941.06;;;-0.69;100.00
62150;BME280;48134;53.586;10.610;2024-02-26T05:20:24;99948.09;;;-0.75;100.00
62150;BME280;48134;53.586;10.610;2024-02-26T05:22:59;99948.09;;;-0.75;100.00
62150;BME280;48134;53.586;10.610;2024-02-26T05:25:32;99957.22;;;-0.64;100.00
62150;BME280;48134;53.586;10.610;2024-02-26T05:28:05;99956.19;;;-0.63;100.00
62150;BME280;48134;53.586;10.610;2024-02-26T05:30:39;99955.44;;;-0.70;100.00
62150;BME280;48134;53.586;10.610;2024-02-26T05:33:12;99957.09;;;-0.69;100.00
62150;BME280;48134;53.586;10.610;2024-02-26T05:35:46;99952.63;;;-0.75;100.00
62150;BME280;48134;53.586;10.610;2024-02-26T05:38:20;99957.59;;;-0.79;100.00
62150;BME280;48134;53.586;10.610;2024-02-26T05:40:54;99967.25;;;-0.78;100.00
62150;BME280;48134;53.586;10.610;2024-02-26T05:43:22;99965.31;;;-0.71;100.00
62150;BME280;48134;53.586;10.610;2024-02-26T05:45:55;99962.56;;;-0.64;100.00
62150;BME280;48134;53.586;10.610;2024-02-26T05:48:23;99968.22;;;-0.54;100.00
62150;BME280;48134;53.586;10.610;2024-02-26T05:50:51;99968.50;;;-0.43;100.00
62150;BME280;48134;53.586;10.610;2024-02-26T05:53:21;99962.47;;;-0.39;100.00
62150;BME280;48134;53.586;10.610;2024-02-26T05:55:54;99969.53;;;-0.44;100.00
62150;BME280;48134;53.586;10.610;2024-02-26T05:58:22;99959.97;;;-0.52;100.00
62150;BME280;48134;53.586;10.610;2024-02-26T06:00:55;99978.38;;;-0.44;100.00
62150;BME280;48134;53.586;10.610;2024-02-26T06:03:29;99979.88;;;-0.48;100.00
62150;BME280;48134;53.586;10.610;2024-02-26T06:05:57;99986.09;;;-0.54;100.00
62150;BME280;48134;53.586;10.610;2024-02-26T06:08:32;99984.53;;;-0.62;100.00
62150;BME280;48134;53.586;10.610;2024-02-26T06:11:05;99991.97;;;-0.64;100.00
62150;BME280;48134;53.586;10.610;2024-02-26T06:13:38;99993.22;;;-0.66;100.00
62150;BME280;48134;53.586;10.610;2024-02-26T06:16:07;99995.88;;;-0.66;100.00
62150;BME280;48134;53.586;10.610;2024-02-26T06:18:41;100002.41;;;-0.62;100.00
62150;BME280;48134;53.586;10.610;2024-02-26T06:21:14;100007.53;;;-0.61;100.00
62150;BME280;48134;53.586;10.610;2024-02-26T06:23:44;100007.41;;;-0.66;100.00
62150;BME280;48134;53.586;10.610;2024-02-26T06:26:12;100009.69;;;-0.70;100.00
62150;BME280;48134;53.586;10.610;2024-02-26T06:28:45;100011.69;;;-0.65;100.00
62150;BME280;48134;53.586;10.610;2024-02-26T06:31:19;100012.81;;;-0.54;100.00
62150;BME280;48134;53.586;10.610;2024-02-26T06:33:48;100018.16;;;-0.36;100.00
62150;BME280;48134;53.586;10.610;2024-02-26T06:36:21;100009.94;;;-0.34;100.00
62150;BME280;48134;53.586;10.610;2024-02-26T06:38:56;100019.97;;;-0.48;100.00
62150;BME280;48134;53.586;10.610;2024-02-26T06:41:29;100023.00;;;-0.63;100.00
62150;BME280;48134;53.586;10.610;2024-02-26T06:44:03;100017.19;;;-0.60;100.00
62150;BME280;48134;53.586;10.610;2024-02-26T06:46:36;100014.91;;;-0.56;100.00
62150;BME280;48134;53.586;10.610;2024-02-26T06:49:09;100011.63;;;-0.58;100.00
62150;BME280;48134;53.586;10.610;2024-02-26T06:51:42;100018.69;;;-0.64;100.00
62150;BME280;48134;53.586;10.610;2024-02-26T06:54:17;100020.16;;;-0.68;100.00
62150;BME280;48134;53.586;10.610;2024-02-26T06:56:45;100023.22;;;-0.64;100.00
62150;BME280;48134;53.586;10.610;2024-02-26T06:59:18;100030.78;;;-0.61;100.00
62150;BME280;48134;53.586;10.610;2024-02-26T07:01:52;100039.53;;;-0.73;100.00
62150;BME280;48134;53.586;10.610;2024-02-26T07:04:26;100042.78;;;-0.71;100.00
62150;BME280;48134;53.586;10.610;2024-02-26T07:06:54;100044.38;;;-0.63;100.00
62150;BME280;48134;53.586;10.610;2024-02-26T07:09:29;100049.28;;;-0.60;100.00
62150;BME280;48134;53.586;10.610;2024-02-26T07:12:02;100045.56;;;-0.59;100.00
62150;BME280;48134;53.586;10.610;2024-02-26T07:14:36;100041.84;;;-0.58;100.00
62150;BME280;48134;53.586;10.610;2024-02-26T07:17:04;100045.50;;;-0.52;100.00
62150;BME280;48134;53.586;10.610;2024-02-26T07:19:38;100044.81;;;-0.47;100.00
62150;BME280;48134;53.586;10.610;2024-02-26T07:22:11;100048.31;;;-0.47;100.00
62150;BME280;48134;53.586;10.610;2024-02-26T07:24:47;100045.38;;;-0.39;100.00
62150;BME280;48134;53.586;10.610;2024-02-26T07:27:21;100049.41;;;-0.36;100.00
62150;BME280;48134;53.586;10.610;2024-02-26T07:29:54;100044.38;;;-0.26;100.00
62150;BME280;48134;53.586;10.610;2024-02-26T07:32:27;100051.28;;;-0.18;100.00
62150;BME280;48134;53.586;10.610;2024-02-26T07:35:00;100058.50;;;-0.37;100.00
62150;BME280;48134;53.586;10.610;2024-02-26T07:37:33;100061.31;;;-0.32;100.00
62150;BME280;48134;53.586;10.610;2024-02-26T07:40:09;100066.34;;;-0.24;100.00
62150;BME280;48134;53.586;10.610;2024-02-26T07:42:42;100062.41;;;-0.21;100.00
62150;BME280;48134;53.586;10.610;2024-02-26T07:45:11;100068.28;;;-0.31;100.00
62150;BME280;48134;53.586;10.610;2024-02-26T07:47:44;100073.66;;;-0.12;100.00
62150;BME280;48134;53.586;10.610;2024-02-26T07:50:17;100074.31;;;0.02;100.00
62150;BME280;48134;53.586;10.610;2024-02-26T07:52:53;100079.03;;;0.18;100.00
62150;BME280;48134;53.586;10.610;2024-02-26T07:55:27;100085.66;;;0.15;100.00
62150;BME280;48134;53.586;10.610;2024-02-26T07:58:01;100089.44;;;0.26;100.00
62150;BME280;48134;53.586;10.610;2024-02-26T08:00:34;100086.47;;;0.46;100.00
62150;BME280;48134;53.586;10.610;2024-02-26T08:03:07;100096.94;;;0.48;100.00
62150;BME280;48134;53.586;10.610;2024-02-26T08:05:35;100097.34;;;0.33;100.00
62150;BME280;48134;53.586;10.610;2024-02-26T08:08:11;100098.75;;;0.36;100.00
62150;BME280;48134;53.586;10.610;2024-02-26T08:10:46;100107.88;;;0.46;100.00
62150;BME280;48134;53.586;10.610;2024-02-26T08:13:14;100109.94;;;0.32;100.00
62150;BME280;48134;53.586;10.610;2024-02-26T08:15:47;100112.75;;;0.38;100.00
62150;BME280;48134;53.586;10.610;2024-02-26T08:18:15;100114.16;;;0.40;100.00
62150;BME280;48134;53.586;10.610;2024-02-26T08:20:44;100112.66;;;0.44;100.00
62150;BME280;48134;53.586;10.610;2024-02-26T08:23:17;100107.88;;;0.46;100.00
62150;BME280;48134;53.586;10.610;2024-02-26T08:25:51;100109.56;;;0.59;100.00
62150;BME280;48134;53.586;10.610;2024-02-26T08:28:20;100112.56;;;0.51;100.00
62150;BME280;48134;53.586;10.610;2024-02-26T08:30:53;100113.22;;;0.65;100.00
62150;BME280;48134;53.586;10.610;2024-02-26T08:33:21;100119.38;;;0.77;100.00
62150;BME280;48134;53.586;10.610;2024-02-26T08:35:54;100114.88;;;0.78;100.00
62150;BME280;48134;53.586;10.610;2024-02-26T08:38:27;100117.78;;;0.88;100.00
62150;BME280;48134;53.586;10.610;2024-02-26T08:40:57;100111.16;;;0.79;100.00
62150;BME280;48134;53.586;10.610;2024-02-26T08:43:25;100123.75;;;1.02;100.00
62150;BME280;48134;53.586;10.610;2024-02-26T08:45:58;100125.34;;;1.22;100.00
62150;BME280;48134;53.586;10.610;2024-02-26T08:48:31;100128.09;;;1.27;100.00
62150;BME280;48134;53.586;10.610;2024-02-26T08:51:00;100128.81;;;1.22;100.00
62150;BME280;48134;53.586;10.610;2024-02-26T08:53:33;100131.25;;;1.24;100.00
62150;BME280;48134;53.586;10.610;2024-02-26T08:56:08;100138.75;;;1.45;100.00
62150;BME280;48134;53.586;10.610;2024-02-26T08:58:36;100130.81;;;1.62;100.00
62150;BME280;48134;53.586;10.610;2024-02-26T09:01:04;100129.75;;;1.51;100.00
62150;BME280;48134;53.586;10.610;2024-02-26T09:03:32;100138.16;;;1.31;100.00
62150;BME280;48134;53.586;10.610;2024-02-26T09:06:06;100136.88;;;1.58;100.00
62150;BME280;48134;53.586;10.610;2024-02-26T09:08:39;100141.66;;;1.56;100.00
62150;BME280;48134;53.586;10.610;2024-02-26T09:11:14;100136.50;;;1.78;100.00
62150;BME280;48134;53.586;10.610;2024-02-26T09:13:47;100145.59;;;1.89;100.00
62150;BME280;48134;53.586;10.610;2024-02-26T09:16:20;100137.19;;;1.97;100.00
62150;BME280;48134;53.586;10.610;2024-02-26T09:18:53;100144.63;;;2.07;100.00
62150;BME280;48134;53.586;10.610;2024-02-26T09:21:26;100143.78;;;2.18;100.00
62150;BME280;48134;53.586;10.610;2024-02-26T09:24:00;100147.09;;;2.08;100.00
62150;BME280;48134;53.586;10.610;2024-02-26T09:26:34;100155.25;;;2.01;100.00
62150;BME280;48134;53.586;10.610;2024-02-26T09:29:07;100154.13;;;2.38;100.00
62150;BME280;48134;53.586;10.610;2024-02-26T09:31:41;100155.72;;;2.51;100.00
62150;BME280;48134;53.586;10.610;2024-02-26T09:34:09;100160.44;;;2.44;100.00
62150;BME280;48134;53.586;10.610;2024-02-26T09:36:37;100156.13;;;2.71;100.00
62150;BME280;48134;53.586;10.610;2024-02-26T09:39:10;100159.41;;;2.91;100.00
62150;BME280;48134;53.586;10.610;2024-02-26T09:41:44;100158.91;;;2.77;100.00
62150;BME280;48134;53.586;10.610;2024-02-26T09:44:19;100163.66;;;2.86;100.00
62150;BME280;48134;53.586;10.610;2024-02-26T09:46:53;100164.06;;;2.95;100.00
62150;BME280;48134;53.586;10.610;2024-02-26T09:49:26;100162.56;;;3.16;100.00
62150;BME280;48134;53.586;10.610;2024-02-26T09:52:01;100165.97;;;3.12;100.00
62150;BME280;48134;53.586;10.610;2024-02-26T09:54:35;100166.31;;;3.32;100.00
62150;BME280;48134;53.586;10.610;2024-02-26T09:57:11;100171.94;;;3.14;100.00
62150;BME280;48134;53.586;10.610;2024-02-26T09:59:43;100175.00;;;3.39;100.00
62150;BME280;48134;53.586;10.610;2024-02-26T10:02:17;100174.31;;;3.44;100.00
62150;BME280;48134;53.586;10.610;2024-02-26T10:04:52;100179.69;;;3.44;100.00
62150;BME280;48134;53.586;10.610;2024-02-26T10:07:24;100175.25;;;3.38;100.00
62150;BME280;48134;53.586;10.610;2024-02-26T10:09:53;100178.84;;;3.44;100.00
62150;BME280;48134;53.586;10.610;2024-02-26T10:12:28;100177.31;;;3.48;100.00
62150;BME280;48134;53.586;10.610;2024-02-26T10:15:03;100182.59;;;3.60;100.00
62150;BME280;48134;53.586;10.610;2024-02-26T10:17:31;100181.97;;;3.52;100.00
62150;BME280;48134;53.586;10.610;2024-02-26T10:20:15;100183.91;;;3.57;100.00
62150;BME280;48134;53.586;10.610;2024-02-26T10:22:44;100188.38;;;3.68;100.00
62150;BME280;48134;53.586;10.610;2024-02-26T10:25:13;100198.25;;;3.63;100.00
62150;BME280;48134;53.586;10.610;2024-02-26T10:27:48;100192.72;;;3.69;100.00
62150;BME280;48134;53.586;10.610;2024-02-26T10:30:17;100198.56;;;3.83;100.00
62150;BME280;48134;53.586;10.610;2024-02-26T10:32:51;100195.78;;;3.78;100.00
62150;BME280;48134;53.586;10.610;2024-02-26T10:35:25;100196.88;;;3.77;100.00
62150;BME280;48134;53.586;10.610;2024-02-26T10:37:58;100203.94;;;3.83;100.00
62150;BME280;48134;53.586;10.610;2024-02-26T10:40:31;100208.06;;;4.08;100.00
62150;BME280;48134;53.586;10.610;2024-02-26T10:43:07;100206.84;;;3.99;100.00
62150;BME280;48134;53.586;10.610;2024-02-26T10:45:40;100207.69;;;3.99;100.00
62150;BME280;48134;53.586;10.610;2024-02-26T10:48:10;100210.25;;;4.11;100.00
62150;BME280;48134;53.586;10.610;2024-02-26T10:50:40;100209.03;;;4.41;100.00
62150;BME280;48134;53.586;10.610;2024-02-26T10:53:13;100215.31;;;4.24;100.00
62150;BME280;48134;53.586;10.610;2024-02-26T10:55:48;100213.47;;;4.30;100.00
62150;BME280;48134;53.586;10.610;2024-02-26T10:58:19;100216.88;;;4.42;100.00
62150;BME280;48134;53.586;10.610;2024-02-26T11:00:52;100217.19;;;4.24;100.00
62150;BME280;48134;53.586;10.610;2024-02-26T11:03:26;100219.56;;;4.42;100.00
62150;BME280;48134;53.586;10.610;2024-02-26T11:06:00;100228.00;;;4.29;100.00
62150;BME280;48134;53.586;10.610;2024-02-26T11:08:34;100208.34;;;4.51;100.00
62150;BME280;48134;53.586;10.610;2024-02-26T11:11:04;100207.41;;;4.40;100.00
62150;BME280;48134;53.586;10.610;2024-02-26T11:13:39;100206.72;;;4.72;100.00
62150;BME280;48134;53.586;10.610;2024-02-26T11:16:15;100204.84;;;4.72;100.00
62150;BME280;48134;53.586;10.610;2024-02-26T11:18:46;100213.03;;;4.83;100.00
62150;BME280;48134;53.586;10.610;2024-02-26T11:21:21;100214.50;;;4.96;100.00
62150;BME280;48134;53.586;10.610;2024-02-26T11:23:54;100211.91;;;4.79;100.00
62150;BME280;48134;53.586;10.610;2024-02-26T11:26:28;100216.72;;;4.99;100.00
62150;BME280;48134;53.586;10.610;2024-02-26T11:29:03;100216.41;;;4.95;100.00
62150;BME280;48134;53.586;10.610;2024-02-26T11:31:32;100221.28;;;4.98;100.00
62150;BME280;48134;53.586;10.610;2024-02-26T11:34:06;100225.16;;;5.07;100.00
62150;BME280;48134;53.586;10.610;2024-02-26T11:36:40;100224.09;;;5.08;100.00
62150;BME280;48134;53.586;10.610;2024-02-26T11:39:14;100222.09;;;4.99;100.00
62150;BME280;48134;53.586;10.610;2024-02-26T11:41:44;100224.81;;;4.99;100.00
62150;BME280;48134;53.586;10.610;2024-02-26T11:44:13;100226.41;;;5.00;100.00
62150;BME280;48134;53.586;10.610;2024-02-26T11:46:46;100227.25;;;5.00;100.00
62150;BME280;48134;53.586;10.610;2024-02-26T11:49:31;100220.63;;;5.40;100.00
62150;BME280;48134;53.586;10.610;2024-02-26T11:52:06;100224.63;;;5.38;100.00
62150;BME280;48134;53.586;10.610;2024-02-26T11:54:53;100227.34;;;5.38;100.00
62150;BME280;48134;53.586;10.610;2024-02-26T11:57:26;100230.88;;;5.43;100.00
62150;BME280;48134;53.586;10.610;2024-02-26T11:59:57;100225.03;;;5.52;100.00
62150;BME280;48134;53.586;10.610;2024-02-26T12:02:39;100228.50;;;5.47;100.00
62150;BME280;48134;53.586;10.610;2024-02-26T12:05:14;100238.19;;;5.48;100.00
62150;BME280;48134;53.586;10.610;2024-02-26T12:07:49;100243.81;;;5.74;100.00
62150;BME280;48134;53.586;10.610;2024-02-26T12:10:24;100237.19;;;5.54;100.00
62150;BME280;48134;53.586;10.610;2024-02-26T12:12:59;100237.91;;;5.77;100.00
62150;BME280;48134;53.586;10.610;2024-02-26T12:15:37;100246.53;;;5.74;100.00
62150;BME280;48134;53.586;10.610;2024-02-26T12:18:15;100245.97;;;5.72;100.00
62150;BME280;48134;53.586;10.610;2024-02-26T12:20:44;100255.81;;;5.88;100.00
62150;BME280;48134;53.586;10.610;2024-02-26T12:23:15;100265.63;;;5.67;100.00
62150;BME280;48134;53.586;10.610;2024-02-26T12:25:49;100253.69;;;5.58;100.00
62150;BME280;48134;53.586;10.610;2024-02-26T12:28:17;100270.75;;;5.64;100.00
62150;BME280;48134;53.586;10.610;2024-02-26T12:30:46;100267.00;;;5.70;100.00
62150;BME280;48134;53.586;10.610;2024-02-26T12:33:20;100269.25;;;5.78;100.00
62150;BME280;48134;53.586;10.610;2024-02-26T12:35:49;100267.81;;;5.70;100.00
62150;BME280;48134;53.586;10.610;2024-02-26T12:38:22;100268.94;;;5.74;100.00
62150;BME280;48134;53.586;10.610;2024-02-26T12:40:56;100268.94;;;5.74;100.00
62150;BME280;48134;53.586;10.610;2024-02-26T12:43:29;100275.91;;;5.98;100.00
62150;BME280;48134;53.586;10.610;2024-02-26T12:46:03;100281.88;;;6.00;100.00
62150;BME280;48134;53.586;10.610;2024-02-26T12:48:36;100275.91;;;5.98;100.00
62150;BME280;48134;53.586;10.610;2024-02-26T12:51:10;100278.84;;;5.64;100.00
62150;BME280;48134;53.586;10.610;2024-02-26T12:53:43;100284.19;;;5.91;100.00
62150;BME280;48134;53.586;10.610;2024-02-26T12:56:12;100285.69;;;5.76;100.00
62150;BME280;48134;53.586;10.610;2024-02-26T12:58:46;100291.97;;;5.55;100.00
62150;BME280;48134;53.586;10.610;2024-02-26T13:01:18;100295.00;;;5.58;100.00
62150;BME280;48134;53.586;10.610;2024-02-26T13:03:53;100299.34;;;5.65;100.00
62150;BME280;48134;53.586;10.610;2024-02-26T13:06:21;100312.44;;;5.78;100.00